sensor_id;sensor_type;location;lat;lon;timestamp;P1;durP1;ratioP1;P2;durP2;ratioP2
76107;SDS011;64834;52.516;10.528;2023-05-07T00:00:53;18.75;;;9.10;;
76107;SDS011;64834;52.516;10.528;2023-05-07T00:03:20;18.23;;;9.00;;
76107;SDS011;64834;52.516;10.528;2023-05-07T00:05:45;16.95;;;9.05;;
76107;SDS011;64834;52.516;10.528;2023-05-07T00:08:11;17.63;;;9.40;;
76107;SDS011;64834;52.516;10.528;2023-05-07T00:10:36;21.23;;;10.35;;
76107;SDS011;64834;52.516;10.528;2023-05-07T00:13:02;16.08;;;7.85;;
76107;SDS011;64834;52.516;10.528;2023-05-07T00:15:27;15.73;;;9.35;;
76107;SDS011;64834;52.516;10.528;2023-05-07T00:17:53;16.00;;;7.78;;
76107;SDS011;64834;52.516;10.528;2023-05-07T00:20:18;13.93;;;8.63;;
76107;SDS011;64834;52.516;10.528;2023-05-07T00:22:43;15.48;;;9.02;;
76107;SDS011;64834;52.516;10.528;2023-05-07T00:25:09;16.75;;;8.55;;
76107;SDS011;64834;52.516;10.528;2023-05-07T00:27:35;17.40;;;8.93;;
76107;SDS011;64834;52.516;10.528;2023-05-07T00:30:00;13.30;;;8.00;;
76107;SDS011;64834;52.516;10.528;2023-05-07T00:32:25;13.13;;;7.63;;
76107;SDS011;64834;52.516;10.528;2023-05-07T00:34:51;12.93;;;7.50;;
76107;SDS011;64834;52.516;10.528;2023-05-07T00:37:16;8.73;;;4.85;;
76107;SDS011;64834;52.516;10.528;2023-05-07T00:39:41;11.20;;;6.82;;
76107;SDS011;64834;52.516;10.528;2023-05-07T00:42:07;14.02;;;7.32;;
76107;SDS011;64834;52.516;10.528;2023-05-07T00:44:33;12.93;;;7.22;;
76107;SDS011;64834;52.516;10.528;2023-05-07T00:46:58;9.82;;;6.00;;
76107;SDS011;64834;52.516;10.528;2023-05-07T00:49:32;9.30;;;5.57;;
76107;SDS011;64834;52.516;10.528;2023-05-07T00:52:02;8.35;;;5.47;;
76107;SDS011;64834;52.516;10.528;2023-05-07T00:54:28;9.18;;;5.32;;
76107;SDS011;64834;52.516;10.528;2023-05-07T00:56:53;8.77;;;5.93;;
76107;SDS011;64834;52.516;10.528;2023-05-07T00:59:19;11.80;;;5.82;;
76107;SDS011;64834;52.516;10.528;2023-05-07T01:01:45;10.90;;;6.32;;
76107;SDS011;64834;52.516;10.528;2023-05-07T01:04:10;12.07;;;5.72;;
76107;SDS011;64834;52.516;10.528;2023-05-07T01:06:35;11.95;;;6.13;;
76107;SDS011;64834;52.516;10.528;2023-05-07T01:09:01;10.55;;;5.55;;
76107;SDS011;64834;52.516;10.528;2023-05-07T01:11:26;11.13;;;6.43;;
76107;SDS011;64834;52.516;10.528;2023-05-07T01:13:52;12.15;;;6.93;;
76107;SDS011;64834;52.516;10.528;2023-05-07T01:16:18;12.05;;;6.38;;
76107;SDS011;64834;52.516;10.528;2023-05-07T01:18:43;12.40;;;7.43;;
76107;SDS011;64834;52.516;10.528;2023-05-07T01:21:10;11.05;;;6.85;;
76107;SDS011;64834;52.516;10.528;2023-05-07T01:23:36;11.20;;;7.00;;
76107;SDS011;64834;52.516;10.528;2023-05-07T01:26:02;11.70;;;6.53;;
76107;SDS011;64834;52.516;10.528;2023-05-07T01:28:27;12.57;;;6.53;;
76107;SDS011;64834;52.516;10.528;2023-05-07T01:30:54;12.55;;;6.72;;
76107;SDS011;64834;52.516;10.528;2023-05-07T01:33:24;13.25;;;6.45;;
76107;SDS011;64834;52.516;10.528;2023-05-07T01:35:53;11.25;;;5.63;;
76107;SDS011;64834;52.516;10.528;2023-05-07T01:38:18;12.73;;;6.88;;
76107;SDS011;64834;52.516;10.528;2023-05-07T01:40:47;16.02;;;7.45;;
76107;SDS011;64834;52.516;10.528;2023-05-07T01:43:12;12.70;;;6.85;;
76107;SDS011;64834;52.516;10.528;2023-05-07T01:45:37;12.27;;;6.97;;
76107;SDS011;64834;52.516;10.528;2023-05-07T01:48:04;12.90;;;7.05;;
76107;SDS011;64834;52.516;10.528;2023-05-07T01:50:30;11.40;;;6.32;;
76107;SDS011;64834;52.516;10.528;2023-05-07T01:52:56;10.80;;;6.13;;
76107;SDS011;64834;52.516;10.528;2023-05-07T01:55:21;10.75;;;6.15;;
76107;SDS011;64834;52.516;10.528;2023-05-07T01:57:47;12.00;;;5.93;;
76107;SDS011;64834;52.516;10.528;2023-05-07T02:00:12;9.77;;;5.57;;
76107;SDS011;64834;52.516;10.528;2023-05-07T02:02:37;11.35;;;5.40;;
76107;SDS011;64834;52.516;10.528;2023-05-07T02:05:03;11.77;;;6.45;;
76107;SDS011;64834;52.516;10.528;2023-05-07T02:07:29;11.85;;;6.50;;
76107;SDS011;64834;52.516;10.528;2023-05-07T02:09:55;11.68;;;6.07;;
76107;SDS011;64834;52.516;10.528;2023-05-07T02:12:20;12.20;;;6.07;;
76107;SDS011;64834;52.516;10.528;2023-05-07T02:14:46;11.05;;;6.60;;
76107;SDS011;64834;52.516;10.528;2023-05-07T02:17:11;9.75;;;5.65;;
76107;SDS011;64834;52.516;10.528;2023-05-07T02:19:36;11.30;;;6.63;;
76107;SDS011;64834;52.516;10.528;2023-05-07T02:22:02;12.68;;;6.72;;
76107;SDS011;64834;52.516;10.528;2023-05-07T02:24:27;11.30;;;6.40;;
76107;SDS011;64834;52.516;10.528;2023-05-07T02:26:52;11.77;;;6.88;;
76107;SDS011;64834;52.516;10.528;2023-05-07T02:29:18;11.60;;;5.68;;
76107;SDS011;64834;52.516;10.528;2023-05-07T02:31:43;10.98;;;6.72;;
76107;SDS011;64834;52.516;10.528;2023-05-07T02:34:08;10.57;;;5.63;;
76107;SDS011;64834;52.516;10.528;2023-05-07T02:36:34;10.75;;;4.78;;
76107;SDS011;64834;52.516;10.528;2023-05-07T02:38:59;11.95;;;6.65;;
76107;SDS011;64834;52.516;10.528;2023-05-07T02:41:25;8.95;;;5.40;;
76107;SDS011;64834;52.516;10.528;2023-05-07T02:43:50;11.98;;;6.60;;
76107;SDS011;64834;52.516;10.528;2023-05-07T02:46:16;10.45;;;6.70;;
76107;SDS011;64834;52.516;10.528;2023-05-07T02:48:41;9.85;;;5.90;;
76107;SDS011;64834;52.516;10.528;2023-05-07T02:51:06;11.23;;;5.93;;
76107;SDS011;64834;52.516;10.528;2023-05-07T02:53:32;11.77;;;7.35;;
76107;SDS011;64834;52.516;10.528;2023-05-07T02:55:57;12.45;;;5.90;;
76107;SDS011;64834;52.516;10.528;2023-05-07T02:58:24;10.95;;;6.57;;
76107;SDS011;64834;52.516;10.528;2023-05-07T03:00:50;9.95;;;5.90;;
76107;SDS011;64834;52.516;10.528;2023-05-07T03:03:16;12.35;;;7.35;;
76107;SDS011;64834;52.516;10.528;2023-05-07T03:05:42;11.55;;;7.30;;
76107;SDS011;64834;52.516;10.528;2023-05-07T03:08:07;14.02;;;7.28;;
76107;SDS011;64834;52.516;10.528;2023-05-07T03:10:33;11.02;;;7.18;;
76107;SDS011;64834;52.516;10.528;2023-05-07T03:12:58;11.45;;;6.88;;
76107;SDS011;64834;52.516;10.528;2023-05-07T03:15:24;11.77;;;7.30;;
76107;SDS011;64834;52.516;10.528;2023-05-07T03:17:49;10.40;;;6.50;;
76107;SDS011;64834;52.516;10.528;2023-05-07T03:20:15;12.45;;;7.57;;
76107;SDS011;64834;52.516;10.528;2023-05-07T03:22:40;10.77;;;7.72;;
76107;SDS011;64834;52.516;10.528;2023-05-07T03:25:06;12.27;;;7.28;;
76107;SDS011;64834;52.516;10.528;2023-05-07T03:27:32;12.77;;;8.55;;
76107;SDS011;64834;52.516;10.528;2023-05-07T03:29:57;10.90;;;7.68;;
76107;SDS011;64834;52.516;10.528;2023-05-07T03:32:23;11.02;;;7.28;;
76107;SDS011;64834;52.516;10.528;2023-05-07T03:34:48;12.45;;;7.35;;
76107;SDS011;64834;52.516;10.528;2023-05-07T03:37:13;11.57;;;7.95;;
76107;SDS011;64834;52.516;10.528;2023-05-07T03:39:39;13.75;;;8.07;;
76107;SDS011;64834;52.516;10.528;2023-05-07T03:42:04;12.80;;;7.78;;
76107;SDS011;64834;52.516;10.528;2023-05-07T03:44:29;12.95;;;8.40;;
76107;SDS011;64834;52.516;10.528;2023-05-07T03:46:55;12.70;;;7.63;;
76107;SDS011;64834;52.516;10.528;2023-05-07T03:49:20;12.40;;;7.82;;
76107;SDS011;64834;52.516;10.528;2023-05-07T03:51:46;12.93;;;7.72;;
76107;SDS011;64834;52.516;10.528;2023-05-07T03:54:11;9.73;;;6.10;;
76107;SDS011;64834;52.516;10.528;2023-05-07T03:56:36;13.23;;;8.25;;
76107;SDS011;64834;52.516;10.528;2023-05-07T03:59:02;13.50;;;7.85;;
76107;SDS011;64834;52.516;10.528;2023-05-07T04:01:27;12.27;;;7.80;;
76107;SDS011;64834;52.516;10.528;2023-05-07T04:03:52;13.73;;;7.95;;
76107;SDS011;64834;52.516;10.528;2023-05-07T04:06:18;11.35;;;6.47;;
76107;SDS011;64834;52.516;10.528;2023-05-07T04:08:43;8.05;;;4.68;;
76107;SDS011;64834;52.516;10.528;2023-05-07T04:11:08;11.90;;;7.30;;
76107;SDS011;64834;52.516;10.528;2023-05-07T04:13:34;11.95;;;7.05;;
76107;SDS011;64834;52.516;10.528;2023-05-07T04:16:00;9.05;;;6.05;;
76107;SDS011;64834;52.516;10.528;2023-05-07T04:18:26;9.70;;;6.00;;
76107;SDS011;64834;52.516;10.528;2023-05-07T04:20:52;9.63;;;5.43;;
76107;SDS011;64834;52.516;10.528;2023-05-07T04:23:17;9.70;;;6.60;;
76107;SDS011;64834;52.516;10.528;2023-05-07T04:25:42;9.27;;;5.85;;
76107;SDS011;64834;52.516;10.528;2023-05-07T04:28:08;10.18;;;6.03;;
76107;SDS011;64834;52.516;10.528;2023-05-07T04:30:33;10.90;;;6.30;;
76107;SDS011;64834;52.516;10.528;2023-05-07T04:32:58;9.82;;;6.32;;
76107;SDS011;64834;52.516;10.528;2023-05-07T04:35:24;9.32;;;5.88;;
76107;SDS011;64834;52.516;10.528;2023-05-07T04:37:49;10.70;;;7.15;;
76107;SDS011;64834;52.516;10.528;2023-05-07T04:40:14;10.30;;;6.78;;
76107;SDS011;64834;52.516;10.528;2023-05-07T04:42:41;8.63;;;5.90;;
76107;SDS011;64834;52.516;10.528;2023-05-07T04:45:06;10.80;;;7.13;;
76107;SDS011;64834;52.516;10.528;2023-05-07T04:47:32;11.50;;;6.80;;
76107;SDS011;64834;52.516;10.528;2023-05-07T04:49:57;9.77;;;6.80;;
76107;SDS011;64834;52.516;10.528;2023-05-07T04:52:23;10.20;;;5.97;;
76107;SDS011;64834;52.516;10.528;2023-05-07T04:54:48;9.43;;;5.93;;
76107;SDS011;64834;52.516;10.528;2023-05-07T04:57:13;10.68;;;6.85;;
76107;SDS011;64834;52.516;10.528;2023-05-07T04:59:39;10.05;;;6.57;;
76107;SDS011;64834;52.516;10.528;2023-05-07T05:02:04;13.13;;;6.70;;
76107;SDS011;64834;52.516;10.528;2023-05-07T05:04:30;9.55;;;6.45;;
76107;SDS011;64834;52.516;10.528;2023-05-07T05:06:55;11.60;;;7.85;;
76107;SDS011;64834;52.516;10.528;2023-05-07T05:09:21;11.68;;;7.43;;
76107;SDS011;64834;52.516;10.528;2023-05-07T05:11:46;11.02;;;6.78;;
76107;SDS011;64834;52.516;10.528;2023-05-07T05:14:11;10.98;;;6.88;;
76107;SDS011;64834;52.516;10.528;2023-05-07T05:16:37;10.88;;;7.38;;
76107;SDS011;64834;52.516;10.528;2023-05-07T05:19:02;11.05;;;7.10;;
76107;SDS011;64834;52.516;10.528;2023-05-07T05:21:27;10.93;;;7.15;;
76107;SDS011;64834;52.516;10.528;2023-05-07T05:23:53;10.73;;;5.95;;
76107;SDS011;64834;52.516;10.528;2023-05-07T05:26:18;8.85;;;6.00;;
76107;SDS011;64834;52.516;10.528;2023-05-07T05:28:43;9.15;;;5.55;;
76107;SDS011;64834;52.516;10.528;2023-05-07T05:31:09;11.63;;;7.35;;
76107;SDS011;64834;52.516;10.528;2023-05-07T05:33:35;12.80;;;7.82;;
76107;SDS011;64834;52.516;10.528;2023-05-07T05:36:00;12.65;;;7.85;;
76107;SDS011;64834;52.516;10.528;2023-05-07T05:38:25;11.60;;;7.78;;
76107;SDS011;64834;52.516;10.528;2023-05-07T05:40:51;12.18;;;8.02;;
76107;SDS011;64834;52.516;10.528;2023-05-07T05:43:16;12.55;;;8.10;;
76107;SDS011;64834;52.516;10.528;2023-05-07T05:45:41;11.27;;;7.35;;
76107;SDS011;64834;52.516;10.528;2023-05-07T05:48:07;12.40;;;8.10;;
76107;SDS011;64834;52.516;10.528;2023-05-07T05:50:33;11.88;;;7.95;;
76107;SDS011;64834;52.516;10.528;2023-05-07T05:53:00;11.05;;;7.38;;
76107;SDS011;64834;52.516;10.528;2023-05-07T05:55:26;12.30;;;7.97;;
76107;SDS011;64834;52.516;10.528;2023-05-07T05:57:51;9.48;;;6.07;;
76107;SDS011;64834;52.516;10.528;2023-05-07T06:00:16;12.55;;;7.30;;
76107;SDS011;64834;52.516;10.528;2023-05-07T06:02:42;11.90;;;7.40;;
76107;SDS011;64834;52.516;10.528;2023-05-07T06:05:10;11.60;;;7.88;;
76107;SDS011;64834;52.516;10.528;2023-05-07T06:07:35;12.07;;;7.45;;
76107;SDS011;64834;52.516;10.528;2023-05-07T06:10:01;12.38;;;6.97;;
76107;SDS011;64834;52.516;10.528;2023-05-07T06:12:26;14.52;;;8.57;;
76107;SDS011;64834;52.516;10.528;2023-05-07T06:14:52;13.00;;;9.18;;
76107;SDS011;64834;52.516;10.528;2023-05-07T06:17:17;13.10;;;7.88;;
76107;SDS011;64834;52.516;10.528;2023-05-07T06:19:43;11.13;;;6.55;;
76107;SDS011;64834;52.516;10.528;2023-05-07T06:22:08;12.65;;;7.80;;
76107;SDS011;64834;52.516;10.528;2023-05-07T06:24:33;13.95;;;9.07;;
76107;SDS011;64834;52.516;10.528;2023-05-07T06:26:59;15.25;;;9.10;;
76107;SDS011;64834;52.516;10.528;2023-05-07T06:29:24;12.48;;;7.95;;
76107;SDS011;64834;52.516;10.528;2023-05-07T06:31:55;14.75;;;8.60;;
76107;SDS011;64834;52.516;10.528;2023-05-07T06:34:20;12.68;;;7.78;;
76107;SDS011;64834;52.516;10.528;2023-05-07T06:36:46;12.07;;;8.35;;
76107;SDS011;64834;52.516;10.528;2023-05-07T06:39:11;11.90;;;7.07;;
76107;SDS011;64834;52.516;10.528;2023-05-07T06:41:36;13.43;;;8.85;;
76107;SDS011;64834;52.516;10.528;2023-05-07T06:44:02;12.73;;;8.50;;
76107;SDS011;64834;52.516;10.528;2023-05-07T06:46:28;13.02;;;6.45;;
76107;SDS011;64834;52.516;10.528;2023-05-07T06:48:53;11.75;;;7.80;;
76107;SDS011;64834;52.516;10.528;2023-05-07T06:51:20;14.32;;;8.52;;
76107;SDS011;64834;52.516;10.528;2023-05-07T06:53:45;15.43;;;8.57;;
76107;SDS011;64834;52.516;10.528;2023-05-07T06:56:10;13.30;;;7.78;;
76107;SDS011;64834;52.516;10.528;2023-05-07T06:58:36;12.23;;;7.78;;
76107;SDS011;64834;52.516;10.528;2023-05-07T07:01:02;11.30;;;7.03;;
76107;SDS011;64834;52.516;10.528;2023-05-07T07:03:27;11.45;;;7.65;;
76107;SDS011;64834;52.516;10.528;2023-05-07T07:05:53;12.80;;;8.02;;
76107;SDS011;64834;52.516;10.528;2023-05-07T07:08:19;12.15;;;7.85;;
76107;SDS011;64834;52.516;10.528;2023-05-07T07:10:46;12.55;;;8.35;;
76107;SDS011;64834;52.516;10.528;2023-05-07T07:13:11;13.82;;;8.30;;
76107;SDS011;64834;52.516;10.528;2023-05-07T07:15:37;14.85;;;8.73;;
76107;SDS011;64834;52.516;10.528;2023-05-07T07:18:02;16.77;;;8.55;;
76107;SDS011;64834;52.516;10.528;2023-05-07T07:20:27;14.60;;;8.32;;
76107;SDS011;64834;52.516;10.528;2023-05-07T07:22:53;13.40;;;8.18;;
76107;SDS011;64834;52.516;10.528;2023-05-07T07:25:18;10.45;;;6.30;;
76107;SDS011;64834;52.516;10.528;2023-05-07T07:27:44;13.00;;;7.47;;
76107;SDS011;64834;52.516;10.528;2023-05-07T07:30:09;14.05;;;7.30;;
76107;SDS011;64834;52.516;10.528;2023-05-07T07:32:35;9.52;;;7.03;;
76107;SDS011;64834;52.516;10.528;2023-05-07T07:35:00;9.48;;;6.13;;
76107;SDS011;64834;52.516;10.528;2023-05-07T07:37:26;11.93;;;7.13;;
76107;SDS011;64834;52.516;10.528;2023-05-07T07:39:51;9.70;;;5.50;;
76107;SDS011;64834;52.516;10.528;2023-05-07T07:42:17;11.07;;;6.78;;
76107;SDS011;64834;52.516;10.528;2023-05-07T07:44:43;11.40;;;6.70;;
76107;SDS011;64834;52.516;10.528;2023-05-07T07:47:08;10.77;;;6.95;;
76107;SDS011;64834;52.516;10.528;2023-05-07T07:49:33;8.60;;;5.72;;
76107;SDS011;64834;52.516;10.528;2023-05-07T07:51:59;10.02;;;5.97;;
76107;SDS011;64834;52.516;10.528;2023-05-07T07:54:24;9.82;;;6.65;;
76107;SDS011;64834;52.516;10.528;2023-05-07T07:56:50;10.68;;;6.80;;
76107;SDS011;64834;52.516;10.528;2023-05-07T07:59:16;9.20;;;5.68;;
76107;SDS011;64834;52.516;10.528;2023-05-07T08:01:43;10.85;;;6.95;;
76107;SDS011;64834;52.516;10.528;2023-05-07T08:04:09;10.98;;;7.20;;
76107;SDS011;64834;52.516;10.528;2023-05-07T08:06:35;8.90;;;6.25;;
76107;SDS011;64834;52.516;10.528;2023-05-07T08:09:00;10.93;;;7.18;;
76107;SDS011;64834;52.516;10.528;2023-05-07T08:11:25;11.50;;;7.70;;
76107;SDS011;64834;52.516;10.528;2023-05-07T08:13:51;10.98;;;6.70;;
76107;SDS011;64834;52.516;10.528;2023-05-07T08:16:16;8.77;;;6.07;;
76107;SDS011;64834;52.516;10.528;2023-05-07T08:18:42;10.35;;;7.13;;
76107;SDS011;64834;52.516;10.528;2023-05-07T08:21:07;9.27;;;6.38;;
76107;SDS011;64834;52.516;10.528;2023-05-07T08:23:33;8.57;;;6.35;;
76107;SDS011;64834;52.516;10.528;2023-05-07T08:25:59;10.02;;;5.25;;
76107;SDS011;64834;52.516;10.528;2023-05-07T08:28:25;9.23;;;6.05;;
76107;SDS011;64834;52.516;10.528;2023-05-07T08:30:50;9.40;;;7.07;;
76107;SDS011;64834;52.516;10.528;2023-05-07T08:33:15;11.48;;;7.05;;
76107;SDS011;64834;52.516;10.528;2023-05-07T08:35:41;10.15;;;7.50;;
76107;SDS011;64834;52.516;10.528;2023-05-07T08:38:06;10.43;;;7.47;;
76107;SDS011;64834;52.516;10.528;2023-05-07T08:40:33;11.48;;;5.88;;
76107;SDS011;64834;52.516;10.528;2023-05-07T08:43:02;11.55;;;7.15;;
76107;SDS011;64834;52.516;10.528;2023-05-07T08:45:30;10.65;;;7.00;;
76107;SDS011;64834;52.516;10.528;2023-05-07T08:47:58;9.30;;;5.97;;
76107;SDS011;64834;52.516;10.528;2023-05-07T08:50:26;8.63;;;6.40;;
76107;SDS011;64834;52.516;10.528;2023-05-07T08:52:52;10.75;;;7.00;;
76107;SDS011;64834;52.516;10.528;2023-05-07T08:55:18;9.95;;;6.18;;
76107;SDS011;64834;52.516;10.528;2023-05-07T08:57:43;8.13;;;6.07;;
76107;SDS011;64834;52.516;10.528;2023-05-07T09:00:09;7.68;;;5.13;;
76107;SDS011;64834;52.516;10.528;2023-05-07T09:02:35;8.35;;;5.20;;
76107;SDS011;64834;52.516;10.528;2023-05-07T09:05:01;10.45;;;5.97;;
76107;SDS011;64834;52.516;10.528;2023-05-07T09:07:26;7.55;;;5.57;;
76107;SDS011;64834;52.516;10.528;2023-05-07T09:09:52;7.63;;;4.75;;
76107;SDS011;64834;52.516;10.528;2023-05-07T09:12:19;7.30;;;5.30;;
76107;SDS011;64834;52.516;10.528;2023-05-07T09:14:45;7.78;;;5.07;;
76107;SDS011;64834;52.516;10.528;2023-05-07T09:17:11;8.20;;;5.30;;
76107;SDS011;64834;52.516;10.528;2023-05-07T09:19:37;7.75;;;5.15;;
76107;SDS011;64834;52.516;10.528;2023-05-07T09:22:03;7.63;;;4.68;;
76107;SDS011;64834;52.516;10.528;2023-05-07T09:24:30;6.85;;;4.88;;
76107;SDS011;64834;52.516;10.528;2023-05-07T09:26:59;10.43;;;5.22;;
76107;SDS011;64834;52.516;10.528;2023-05-07T09:29:26;6.32;;;3.90;;
76107;SDS011;64834;52.516;10.528;2023-05-07T09:31:53;8.48;;;5.95;;
76107;SDS011;64834;52.516;10.528;2023-05-07T09:34:19;7.82;;;4.88;;
76107;SDS011;64834;52.516;10.528;2023-05-07T09:36:44;7.85;;;5.22;;
76107;SDS011;64834;52.516;10.528;2023-05-07T09:39:10;6.97;;;5.03;;
76107;SDS011;64834;52.516;10.528;2023-05-07T09:41:42;8.00;;;5.32;;
76107;SDS011;64834;52.516;10.528;2023-05-07T09:44:09;8.90;;;5.68;;
76107;SDS011;64834;52.516;10.528;2023-05-07T09:46:34;9.02;;;5.95;;
76107;SDS011;64834;52.516;10.528;2023-05-07T09:49:03;8.32;;;5.55;;
76107;SDS011;64834;52.516;10.528;2023-05-07T09:51:38;9.18;;;5.32;;
76107;SDS011;64834;52.516;10.528;2023-05-07T09:56:33;5.88;;;4.15;;
76107;SDS011;64834;52.516;10.528;2023-05-07T09:58:59;7.72;;;5.07;;
76107;SDS011;64834;52.516;10.528;2023-05-07T10:01:25;7.50;;;4.85;;
76107;SDS011;64834;52.516;10.528;2023-05-07T10:03:52;7.30;;;4.82;;
76107;SDS011;64834;52.516;10.528;2023-05-07T10:06:18;6.90;;;4.88;;
76107;SDS011;64834;52.516;10.528;2023-05-07T10:08:45;7.57;;;5.82;;
76107;SDS011;64834;52.516;10.528;2023-05-07T10:11:11;8.85;;;6.40;;
76107;SDS011;64834;52.516;10.528;2023-05-07T10:13:36;8.40;;;6.45;;
76107;SDS011;64834;52.516;10.528;2023-05-07T10:16:03;7.85;;;5.28;;
76107;SDS011;64834;52.516;10.528;2023-05-07T10:18:32;7.65;;;5.25;;
76107;SDS011;64834;52.516;10.528;2023-05-07T10:21:07;9.82;;;5.85;;
76107;SDS011;64834;52.516;10.528;2023-05-07T10:23:36;10.07;;;6.80;;
76107;SDS011;64834;52.516;10.528;2023-05-07T10:26:04;8.05;;;6.25;;
76107;SDS011;64834;52.516;10.528;2023-05-07T10:28:32;7.50;;;5.38;;
76107;SDS011;64834;52.516;10.528;2023-05-07T10:31:14;10.40;;;6.75;;
76107;SDS011;64834;52.516;10.528;2023-05-07T10:33:43;7.07;;;4.72;;
76107;SDS011;64834;52.516;10.528;2023-05-07T10:36:11;8.00;;;6.45;;
76107;SDS011;64834;52.516;10.528;2023-05-07T10:38:37;8.05;;;5.65;;
76107;SDS011;64834;52.516;10.528;2023-05-07T10:41:04;9.30;;;6.25;;
76107;SDS011;64834;52.516;10.528;2023-05-07T10:43:40;11.20;;;6.85;;
76107;SDS011;64834;52.516;10.528;2023-05-07T10:51:28;8.48;;;6.47;;
76107;SDS011;64834;52.516;10.528;2023-05-07T10:56:43;9.65;;;6.22;;
76107;SDS011;64834;52.516;10.528;2023-05-07T11:01:49;9.52;;;6.28;;
76107;SDS011;64834;52.516;10.528;2023-05-07T11:04:27;9.68;;;6.32;;
76107;SDS011;64834;52.516;10.528;2023-05-07T11:15:01;8.93;;;6.00;;
76107;SDS011;64834;52.516;10.528;2023-05-07T11:17:27;9.55;;;6.60;;
76107;SDS011;64834;52.516;10.528;2023-05-07T11:19:56;8.35;;;4.95;;
76107;SDS011;64834;52.516;10.528;2023-05-07T11:24:59;8.05;;;5.47;;
76107;SDS011;64834;52.516;10.528;2023-05-07T11:27:25;9.48;;;6.53;;
76107;SDS011;64834;52.516;10.528;2023-05-07T11:29:51;11.10;;;7.75;;
76107;SDS011;64834;52.516;10.528;2023-05-07T11:32:22;9.52;;;5.93;;
76107;SDS011;64834;52.516;10.528;2023-05-07T11:34:50;8.52;;;6.20;;
76107;SDS011;64834;52.516;10.528;2023-05-07T11:37:17;9.68;;;6.57;;
76107;SDS011;64834;52.516;10.528;2023-05-07T11:39:42;8.82;;;5.43;;
76107;SDS011;64834;52.516;10.528;2023-05-07T11:42:24;9.95;;;6.00;;
76107;SDS011;64834;52.516;10.528;2023-05-07T11:44:53;8.63;;;6.38;;
76107;SDS011;64834;52.516;10.528;2023-05-07T11:47:19;8.55;;;5.65;;
76107;SDS011;64834;52.516;10.528;2023-05-07T11:49:48;9.82;;;6.53;;
76107;SDS011;64834;52.516;10.528;2023-05-07T11:52:15;8.65;;;5.90;;
76107;SDS011;64834;52.516;10.528;2023-05-07T11:54:48;9.40;;;5.43;;
76107;SDS011;64834;52.516;10.528;2023-05-07T11:57:14;8.10;;;5.78;;
76107;SDS011;64834;52.516;10.528;2023-05-07T11:59:39;10.15;;;6.60;;
76107;SDS011;64834;52.516;10.528;2023-05-07T12:02:05;9.68;;;6.72;;
76107;SDS011;64834;52.516;10.528;2023-05-07T12:04:31;8.55;;;6.25;;
76107;SDS011;64834;52.516;10.528;2023-05-07T12:06:56;7.95;;;5.85;;
76107;SDS011;64834;52.516;10.528;2023-05-07T12:09:22;7.63;;;6.00;;
76107;SDS011;64834;52.516;10.528;2023-05-07T12:11:47;8.68;;;5.88;;
76107;SDS011;64834;52.516;10.528;2023-05-07T12:14:13;8.95;;;6.45;;
76107;SDS011;64834;52.516;10.528;2023-05-07T12:16:40;14.13;;;9.85;;
76107;SDS011;64834;52.516;10.528;2023-05-07T12:19:06;7.68;;;5.50;;
76107;SDS011;64834;52.516;10.528;2023-05-07T12:21:33;6.97;;;4.47;;
76107;SDS011;64834;52.516;10.528;2023-05-07T12:23:59;7.57;;;5.32;;
76107;SDS011;64834;52.516;10.528;2023-05-07T12:26:25;7.35;;;5.30;;
76107;SDS011;64834;52.516;10.528;2023-05-07T12:28:50;8.23;;;5.82;;
76107;SDS011;64834;52.516;10.528;2023-05-07T12:31:16;8.80;;;6.25;;
76107;SDS011;64834;52.516;10.528;2023-05-07T12:33:41;7.63;;;5.28;;
76107;SDS011;64834;52.516;10.528;2023-05-07T12:36:07;8.65;;;6.03;;
76107;SDS011;64834;52.516;10.528;2023-05-07T12:38:37;7.82;;;5.68;;
76107;SDS011;64834;52.516;10.528;2023-05-07T12:41:03;11.40;;;7.53;;
76107;SDS011;64834;52.516;10.528;2023-05-07T12:43:29;12.88;;;7.15;;
76107;SDS011;64834;52.516;10.528;2023-05-07T12:45:57;6.97;;;5.35;;
76107;SDS011;64834;52.516;10.528;2023-05-07T12:48:24;6.60;;;4.43;;
76107;SDS011;64834;52.516;10.528;2023-05-07T12:50:55;8.15;;;5.95;;
76107;SDS011;64834;52.516;10.528;2023-05-07T12:53:22;7.68;;;5.57;;
76107;SDS011;64834;52.516;10.528;2023-05-07T12:58:20;6.82;;;5.05;;
76107;SDS011;64834;52.516;10.528;2023-05-07T13:00:47;7.20;;;5.07;;
76107;SDS011;64834;52.516;10.528;2023-05-07T13:03:21;6.53;;;4.78;;
76107;SDS011;64834;52.516;10.528;2023-05-07T13:05:48;7.72;;;5.60;;
76107;SDS011;64834;52.516;10.528;2023-05-07T13:08:22;7.28;;;5.60;;
76107;SDS011;64834;52.516;10.528;2023-05-07T13:10:52;8.82;;;6.00;;
76107;SDS011;64834;52.516;10.528;2023-05-07T13:13:18;7.32;;;5.88;;
76107;SDS011;64834;52.516;10.528;2023-05-07T13:15:44;7.50;;;5.75;;
76107;SDS011;64834;52.516;10.528;2023-05-07T13:18:09;7.15;;;5.05;;
76107;SDS011;64834;52.516;10.528;2023-05-07T13:20:36;6.97;;;5.45;;
76107;SDS011;64834;52.516;10.528;2023-05-07T13:23:01;8.13;;;5.97;;
76107;SDS011;64834;52.516;10.528;2023-05-07T13:25:27;5.63;;;4.43;;
76107;SDS011;64834;52.516;10.528;2023-05-07T13:27:52;6.63;;;4.93;;
76107;SDS011;64834;52.516;10.528;2023-05-07T13:30:17;6.80;;;4.88;;
76107;SDS011;64834;52.516;10.528;2023-05-07T13:32:43;7.40;;;4.72;;
76107;SDS011;64834;52.516;10.528;2023-05-07T13:35:08;7.13;;;5.32;;
76107;SDS011;64834;52.516;10.528;2023-05-07T13:37:34;6.85;;;4.53;;
76107;SDS011;64834;52.516;10.528;2023-05-07T13:39:59;7.28;;;4.90;;
76107;SDS011;64834;52.516;10.528;2023-05-07T13:42:24;5.65;;;4.10;;
76107;SDS011;64834;52.516;10.528;2023-05-07T13:44:50;8.18;;;5.20;;
76107;SDS011;64834;52.516;10.528;2023-05-07T13:47:15;6.60;;;4.88;;
76107;SDS011;64834;52.516;10.528;2023-05-07T13:49:41;6.60;;;4.72;;
76107;SDS011;64834;52.516;10.528;2023-05-07T13:52:06;6.25;;;4.45;;
76107;SDS011;64834;52.516;10.528;2023-05-07T13:54:31;6.28;;;4.25;;
76107;SDS011;64834;52.516;10.528;2023-05-07T13:56:57;5.90;;;4.22;;
76107;SDS011;64834;52.516;10.528;2023-05-07T13:59:22;9.63;;;6.22;;
76107;SDS011;64834;52.516;10.528;2023-05-07T14:01:47;8.27;;;5.20;;
76107;SDS011;64834;52.516;10.528;2023-05-07T14:04:12;6.10;;;4.63;;
76107;SDS011;64834;52.516;10.528;2023-05-07T14:06:38;6.20;;;4.05;;
76107;SDS011;64834;52.516;10.528;2023-05-07T14:09:04;3.95;;;3.53;;
76107;SDS011;64834;52.516;10.528;2023-05-07T14:11:29;5.30;;;3.90;;
76107;SDS011;64834;52.516;10.528;2023-05-07T14:13:54;5.35;;;3.85;;
76107;SDS011;64834;52.516;10.528;2023-05-07T14:16:21;5.60;;;3.80;;
76107;SDS011;64834;52.516;10.528;2023-05-07T14:18:47;8.15;;;4.38;;
76107;SDS011;64834;52.516;10.528;2023-05-07T14:21:12;6.28;;;3.53;;
76107;SDS011;64834;52.516;10.528;2023-05-07T14:23:38;6.20;;;4.70;;
76107;SDS011;64834;52.516;10.528;2023-05-07T14:26:03;5.15;;;3.60;;
76107;SDS011;64834;52.516;10.528;2023-05-07T14:28:28;5.05;;;3.00;;
76107;SDS011;64834;52.516;10.528;2023-05-07T14:30:54;4.95;;;3.60;;
76107;SDS011;64834;52.516;10.528;2023-05-07T14:33:19;5.57;;;4.70;;
76107;SDS011;64834;52.516;10.528;2023-05-07T14:35:44;5.75;;;4.45;;
76107;SDS011;64834;52.516;10.528;2023-05-07T14:38:13;5.40;;;3.70;;
76107;SDS011;64834;52.516;10.528;2023-05-07T14:40:39;4.68;;;3.67;;
76107;SDS011;64834;52.516;10.528;2023-05-07T14:43:04;4.90;;;3.72;;
76107;SDS011;64834;52.516;10.528;2023-05-07T14:45:29;5.57;;;3.47;;
76107;SDS011;64834;52.516;10.528;2023-05-07T14:47:55;6.65;;;4.40;;